Terminal Aerodrome Forecast
Issued by NWS Louisville, KY

Home | Current Version | Previous Version | Text Only | Print | Product List | Glossary On
Versions: 1 2 3 4 5 6 7 8 9 10 11 12 13
000
FTUS43 KLMK 241700
TAFLEX
TAF
KLEX 241720Z 2418/2518 07004KT P6SM SCT040 SCT250
     FM250100 VRB03KT P6SM FEW030 SCT250
     FM251100 VRB03KT 4SM BR FEW015 BKN250
     FM251400 VRB03KT P6SM SCT025 BKN250=

USA.gov is the U.S. government's official web portal to all federal, state and local government web resources and services.